sensor_id;sensor_type;location;lat;lon;timestamp;temperature;humidity
24035;DHT22;12242;50.952;4.678;2023-03-01T00:01:40;2.00;99.90
24035;DHT22;12242;50.952;4.678;2023-03-01T00:04:08;2.00;99.90
24035;DHT22;12242;50.952;4.678;2023-03-01T00:06:36;2.00;99.90
24035;DHT22;12242;50.952;4.678;2023-03-01T00:09:04;2.00;99.90
24035;DHT22;12242;50.952;4.678;2023-03-01T00:11:33;2.00;99.90
24035;DHT22;12242;50.952;4.678;2023-03-01T00:14:02;2.10;99.90
24035;DHT22;12242;50.952;4.678;2023-03-01T00:16:37;2.10;99.90
24035;DHT22;12242;50.952;4.678;2023-03-01T00:19:12;2.10;99.90
24035;DHT22;12242;50.952;4.678;2023-03-01T00:21:40;2.10;99.90
24035;DHT22;12242;50.952;4.678;2023-03-01T00:24:09;2.10;99.90
24035;DHT22;12242;50.952;4.678;2023-03-01T00:26:38;2.00;99.90
24035;DHT22;12242;50.952;4.678;2023-03-01T00:29:06;2.00;99.90
24035;DHT22;12242;50.952;4.678;2023-03-01T00:31:34;2.00;99.90
24035;DHT22;12242;50.952;4.678;2023-03-01T00:34:04;2.00;99.90
24035;DHT22;12242;50.952;4.678;2023-03-01T00:36:35;1.90;99.90
24035;DHT22;12242;50.952;4.678;2023-03-01T00:39:05;1.90;99.90
24035;DHT22;12242;50.952;4.678;2023-03-01T00:41:33;2.00;99.90
24035;DHT22;12242;50.952;4.678;2023-03-01T00:44:02;1.90;99.90
24035;DHT22;12242;50.952;4.678;2023-03-01T00:46:29;1.90;99.90
24035;DHT22;12242;50.952;4.678;2023-03-01T00:49:02;1.90;99.90
24035;DHT22;12242;50.952;4.678;2023-03-01T00:51:32;1.80;99.90
24035;DHT22;12242;50.952;4.678;2023-03-01T00:54:01;1.70;99.90
24035;DHT22;12242;50.952;4.678;2023-03-01T00:56:30;1.70;99.90
24035;DHT22;12242;50.952;4.678;2023-03-01T00:58:59;1.70;99.90
24035;DHT22;12242;50.952;4.678;2023-03-01T01:01:28;1.60;99.90
24035;DHT22;12242;50.952;4.678;2023-03-01T01:04:05;1.60;99.90
24035;DHT22;12242;50.952;4.678;2023-03-01T01:06:44;1.60;99.90
24035;DHT22;12242;50.952;4.678;2023-03-01T01:09:14;1.50;99.90
24035;DHT22;12242;50.952;4.678;2023-03-01T01:11:47;1.50;99.90
24035;DHT22;12242;50.952;4.678;2023-03-01T01:14:16;1.50;99.90
24035;DHT22;12242;50.952;4.678;2023-03-01T01:16:44;1.50;99.90
24035;DHT22;12242;50.952;4.678;2023-03-01T01:19:12;1.50;99.90
24035;DHT22;12242;50.952;4.678;2023-03-01T01:21:41;1.30;99.90
24035;DHT22;12242;50.952;4.678;2023-03-01T01:24:11;1.30;99.90
24035;DHT22;12242;50.952;4.678;2023-03-01T01:26:39;1.20;99.90
24035;DHT22;12242;50.952;4.678;2023-03-01T01:29:06;1.30;99.90
24035;DHT22;12242;50.952;4.678;2023-03-01T01:31:36;1.30;99.90
24035;DHT22;12242;50.952;4.678;2023-03-01T01:34:06;1.30;99.90
24035;DHT22;12242;50.952;4.678;2023-03-01T01:36:34;1.30;99.90
24035;DHT22;12242;50.952;4.678;2023-03-01T01:39:02;1.30;99.90
24035;DHT22;12242;50.952;4.678;2023-03-01T01:41:30;1.40;99.90
24035;DHT22;12242;50.952;4.678;2023-03-01T01:44:46;1.40;99.90
24035;DHT22;12242;50.952;4.678;2023-03-01T01:47:16;1.40;99.90
24035;DHT22;12242;50.952;4.678;2023-03-01T01:49:55;1.40;99.90
24035;DHT22;12242;50.952;4.678;2023-03-01T01:52:35;1.40;99.90
24035;DHT22;12242;50.952;4.678;2023-03-01T01:55:08;1.30;99.90
24035;DHT22;12242;50.952;4.678;2023-03-01T01:57:40;1.30;99.90
24035;DHT22;12242;50.952;4.678;2023-03-01T02:00:18;1.40;99.90
24035;DHT22;12242;50.952;4.678;2023-03-01T02:02:47;1.40;99.90
24035;DHT22;12242;50.952;4.678;2023-03-01T02:05:35;1.50;99.90
24035;DHT22;12242;50.952;4.678;2023-03-01T02:08:04;1.40;99.90
24035;DHT22;12242;50.952;4.678;2023-03-01T02:10:33;1.40;99.90
24035;DHT22;12242;50.952;4.678;2023-03-01T02:13:03;1.40;99.90
24035;DHT22;12242;50.952;4.678;2023-03-01T02:15:35;1.30;99.90
24035;DHT22;12242;50.952;4.678;2023-03-01T02:18:04;1.30;99.90
24035;DHT22;12242;50.952;4.678;2023-03-01T02:20:49;1.30;99.90
24035;DHT22;12242;50.952;4.678;2023-03-01T02:23:18;1.20;99.90
24035;DHT22;12242;50.952;4.678;2023-03-01T02:26:09;1.20;99.90
24035;DHT22;12242;50.952;4.678;2023-03-01T02:28:43;1.10;99.90
24035;DHT22;12242;50.952;4.678;2023-03-01T02:31:15;1.10;99.90
24035;DHT22;12242;50.952;4.678;2023-03-01T02:34:02;1.10;99.90
24035;DHT22;12242;50.952;4.678;2023-03-01T02:36:39;1.10;99.90
24035;DHT22;12242;50.952;4.678;2023-03-01T02:39:09;1.00;99.90
24035;DHT22;12242;50.952;4.678;2023-03-01T02:41:44;1.10;99.90
24035;DHT22;12242;50.952;4.678;2023-03-01T02:44:14;1.10;99.90
24035;DHT22;12242;50.952;4.678;2023-03-01T02:46:44;1.00;99.90
24035;DHT22;12242;50.952;4.678;2023-03-01T02:55:02;0.80;99.90
24035;DHT22;12242;50.952;4.678;2023-03-01T02:57:32;0.80;99.90
24035;DHT22;12242;50.952;4.678;2023-03-01T03:00:04;0.80;99.90
24035;DHT22;12242;50.952;4.678;2023-03-01T03:02:35;0.80;99.90
24035;DHT22;12242;50.952;4.678;2023-03-01T03:05:12;0.80;99.90
24035;DHT22;12242;50.952;4.678;2023-03-01T03:07:42;0.70;99.90
24035;DHT22;12242;50.952;4.678;2023-03-01T03:10:20;0.70;99.90
24035;DHT22;12242;50.952;4.678;2023-03-01T03:12:59;0.70;99.90
24035;DHT22;12242;50.952;4.678;2023-03-01T03:15:28;0.70;99.90
24035;DHT22;12242;50.952;4.678;2023-03-01T03:17:58;0.60;99.90
24035;DHT22;12242;50.952;4.678;2023-03-01T03:20:27;0.70;99.90
24035;DHT22;12242;50.952;4.678;2023-03-01T03:22:57;0.70;99.90
24035;DHT22;12242;50.952;4.678;2023-03-01T03:25:28;0.70;99.90
24035;DHT22;12242;50.952;4.678;2023-03-01T03:27:57;0.70;99.90
24035;DHT22;12242;50.952;4.678;2023-03-01T03:30:28;0.60;99.90
24035;DHT22;12242;50.952;4.678;2023-03-01T03:32:57;0.60;99.90
24035;DHT22;12242;50.952;4.678;2023-03-01T03:35:31;0.50;99.90
24035;DHT22;12242;50.952;4.678;2023-03-01T03:38:00;0.60;99.90
24035;DHT22;12242;50.952;4.678;2023-03-01T03:40:32;0.50;99.90
24035;DHT22;12242;50.952;4.678;2023-03-01T03:43:01;0.40;99.90
24035;DHT22;12242;50.952;4.678;2023-03-01T03:45:28;0.40;99.90
24035;DHT22;12242;50.952;4.678;2023-03-01T03:47:56;0.40;99.90
24035;DHT22;12242;50.952;4.678;2023-03-01T03:50:24;0.30;99.90
24035;DHT22;12242;50.952;4.678;2023-03-01T03:52:52;0.30;99.90
24035;DHT22;12242;50.952;4.678;2023-03-01T03:55:20;0.30;99.90
24035;DHT22;12242;50.952;4.678;2023-03-01T03:57:48;0.30;99.90
24035;DHT22;12242;50.952;4.678;2023-03-01T04:00:20;0.30;99.90
24035;DHT22;12242;50.952;4.678;2023-03-01T04:02:49;0.30;99.90
24035;DHT22;12242;50.952;4.678;2023-03-01T04:05:18;0.40;99.90
24035;DHT22;12242;50.952;4.678;2023-03-01T04:07:46;0.40;99.90
24035;DHT22;12242;50.952;4.678;2023-03-01T04:10:18;0.40;99.90
24035;DHT22;12242;50.952;4.678;2023-03-01T04:12:45;0.40;99.90
24035;DHT22;12242;50.952;4.678;2023-03-01T04:15:13;0.40;99.90
24035;DHT22;12242;50.952;4.678;2023-03-01T04:17:45;0.40;99.90
24035;DHT22;12242;50.952;4.678;2023-03-01T04:20:15;0.40;99.90
24035;DHT22;12242;50.952;4.678;2023-03-01T04:22:55;0.40;99.90
24035;DHT22;12242;50.952;4.678;2023-03-01T04:25:25;0.40;99.90
24035;DHT22;12242;50.952;4.678;2023-03-01T04:27:52;0.40;99.90
24035;DHT22;12242;50.952;4.678;2023-03-01T04:30:20;0.40;99.90
24035;DHT22;12242;50.952;4.678;2023-03-01T04:32:52;0.30;99.90
24035;DHT22;12242;50.952;4.678;2023-03-01T04:35:20;0.30;99.90
24035;DHT22;12242;50.952;4.678;2023-03-01T04:37:47;0.30;99.90
24035;DHT22;12242;50.952;4.678;2023-03-01T04:40:16;0.30;99.90
24035;DHT22;12242;50.952;4.678;2023-03-01T04:42:44;0.30;99.90
24035;DHT22;12242;50.952;4.678;2023-03-01T04:45:11;0.30;99.90
24035;DHT22;12242;50.952;4.678;2023-03-01T04:47:41;0.30;99.90
24035;DHT22;12242;50.952;4.678;2023-03-01T04:50:12;0.20;99.90
24035;DHT22;12242;50.952;4.678;2023-03-01T04:52:40;0.10;99.90
24035;DHT22;12242;50.952;4.678;2023-03-01T04:55:08;0.10;99.90
24035;DHT22;12242;50.952;4.678;2023-03-01T04:57:36;0.10;99.90
24035;DHT22;12242;50.952;4.678;2023-03-01T05:00:06;0.10;99.90
24035;DHT22;12242;50.952;4.678;2023-03-01T05:02:59;0.20;99.90
24035;DHT22;12242;50.952;4.678;2023-03-01T05:05:30;0.20;99.90
24035;DHT22;12242;50.952;4.678;2023-03-01T05:07:59;0.20;99.90
24035;DHT22;12242;50.952;4.678;2023-03-01T05:10:29;0.10;99.90
24035;DHT22;12242;50.952;4.678;2023-03-01T05:12:58;0.00;99.90
24035;DHT22;12242;50.952;4.678;2023-03-01T05:15:27;0.00;99.90
24035;DHT22;12242;50.952;4.678;2023-03-01T05:17:57;-0.10;99.90
24035;DHT22;12242;50.952;4.678;2023-03-01T05:20:27;-0.10;99.90
24035;DHT22;12242;50.952;4.678;2023-03-01T05:22:58;-0.30;99.90
24035;DHT22;12242;50.952;4.678;2023-03-01T05:25:33;-0.50;99.90
24035;DHT22;12242;50.952;4.678;2023-03-01T05:28:02;-0.40;99.90
24035;DHT22;12242;50.952;4.678;2023-03-01T05:30:33;-0.30;99.90
24035;DHT22;12242;50.952;4.678;2023-03-01T05:33:01;-0.30;99.90
24035;DHT22;12242;50.952;4.678;2023-03-01T05:35:28;-0.30;99.90
24035;DHT22;12242;50.952;4.678;2023-03-01T05:37:56;-0.20;99.90
24035;DHT22;12242;50.952;4.678;2023-03-01T05:40:24;-0.20;99.90
24035;DHT22;12242;50.952;4.678;2023-03-01T05:42:56;-0.20;99.90
24035;DHT22;12242;50.952;4.678;2023-03-01T05:45:25;-0.20;99.90
24035;DHT22;12242;50.952;4.678;2023-03-01T05:47:53;-0.20;99.90
24035;DHT22;12242;50.952;4.678;2023-03-01T05:50:27;-0.20;99.90
24035;DHT22;12242;50.952;4.678;2023-03-01T05:53:14;-0.30;99.90
24035;DHT22;12242;50.952;4.678;2023-03-01T05:55:43;-0.60;99.90
24035;DHT22;12242;50.952;4.678;2023-03-01T05:58:18;-0.70;99.90
24035;DHT22;12242;50.952;4.678;2023-03-01T06:00:48;-0.70;99.90
24035;DHT22;12242;50.952;4.678;2023-03-01T06:03:16;-0.70;99.90
24035;DHT22;12242;50.952;4.678;2023-03-01T06:05:44;-0.60;99.90
24035;DHT22;12242;50.952;4.678;2023-03-01T06:08:13;-0.60;99.90
24035;DHT22;12242;50.952;4.678;2023-03-01T06:10:40;-0.60;99.90
24035;DHT22;12242;50.952;4.678;2023-03-01T06:13:08;-0.50;99.90
24035;DHT22;12242;50.952;4.678;2023-03-01T06:15:35;-0.50;99.90
24035;DHT22;12242;50.952;4.678;2023-03-01T06:18:03;-0.40;99.90
24035;DHT22;12242;50.952;4.678;2023-03-01T06:20:31;-0.40;99.90
24035;DHT22;12242;50.952;4.678;2023-03-01T06:22:59;-0.40;99.90
24035;DHT22;12242;50.952;4.678;2023-03-01T06:25:27;-0.40;99.90
24035;DHT22;12242;50.952;4.678;2023-03-01T06:27:55;-0.40;99.90
24035;DHT22;12242;50.952;4.678;2023-03-01T06:30:24;-0.40;99.90
24035;DHT22;12242;50.952;4.678;2023-03-01T06:32:53;-0.40;99.90
24035;DHT22;12242;50.952;4.678;2023-03-01T06:35:28;-0.30;99.90
24035;DHT22;12242;50.952;4.678;2023-03-01T06:38:01;-0.20;99.90
24035;DHT22;12242;50.952;4.678;2023-03-01T06:40:30;-0.20;99.90
24035;DHT22;12242;50.952;4.678;2023-03-01T06:42:58;-0.20;99.90
24035;DHT22;12242;50.952;4.678;2023-03-01T06:45:26;-0.10;99.90
24035;DHT22;12242;50.952;4.678;2023-03-01T06:48:02;0.00;99.90
24035;DHT22;12242;50.952;4.678;2023-03-01T06:50:30;0.00;99.90
24035;DHT22;12242;50.952;4.678;2023-03-01T06:52:58;0.20;99.90
24035;DHT22;12242;50.952;4.678;2023-03-01T06:55:26;0.30;99.90
24035;DHT22;12242;50.952;4.678;2023-03-01T06:57:58;0.40;99.90
24035;DHT22;12242;50.952;4.678;2023-03-01T07:00:27;0.70;99.90
24035;DHT22;12242;50.952;4.678;2023-03-01T07:02:57;1.00;99.90
24035;DHT22;12242;50.952;4.678;2023-03-01T07:05:25;1.40;99.90
24035;DHT22;12242;50.952;4.678;2023-03-01T07:07:53;1.70;99.90
24035;DHT22;12242;50.952;4.678;2023-03-01T07:10:21;2.60;99.90
24035;DHT22;12242;50.952;4.678;2023-03-01T07:12:49;3.50;99.90
24035;DHT22;12242;50.952;4.678;2023-03-01T07:15:16;3.50;99.90
24035;DHT22;12242;50.952;4.678;2023-03-01T07:17:44;3.50;99.90
24035;DHT22;12242;50.952;4.678;2023-03-01T07:20:14;3.80;99.90
24035;DHT22;12242;50.952;4.678;2023-03-01T07:22:42;3.80;99.90
24035;DHT22;12242;50.952;4.678;2023-03-01T07:25:10;3.70;99.90
24035;DHT22;12242;50.952;4.678;2023-03-01T07:27:38;3.70;99.90
24035;DHT22;12242;50.952;4.678;2023-03-01T07:30:06;3.60;99.90
24035;DHT22;12242;50.952;4.678;2023-03-01T07:32:34;3.60;99.90
24035;DHT22;12242;50.952;4.678;2023-03-01T07:35:02;3.50;99.90
24035;DHT22;12242;50.952;4.678;2023-03-01T07:37:30;3.60;99.90
24035;DHT22;12242;50.952;4.678;2023-03-01T07:39:57;3.20;99.90
24035;DHT22;12242;50.952;4.678;2023-03-01T07:42:25;2.80;99.90
24035;DHT22;12242;50.952;4.678;2023-03-01T07:44:52;2.50;99.90
24035;DHT22;12242;50.952;4.678;2023-03-01T07:47:20;2.40;99.90
24035;DHT22;12242;50.952;4.678;2023-03-01T07:49:47;2.30;99.90
24035;DHT22;12242;50.952;4.678;2023-03-01T07:52:15;2.30;99.90
24035;DHT22;12242;50.952;4.678;2023-03-01T07:54:43;2.20;99.90
24035;DHT22;12242;50.952;4.678;2023-03-01T07:57:11;2.00;99.90
24035;DHT22;12242;50.952;4.678;2023-03-01T07:59:39;1.90;99.90
24035;DHT22;12242;50.952;4.678;2023-03-01T08:02:08;1.80;99.90
24035;DHT22;12242;50.952;4.678;2023-03-01T08:04:36;1.60;99.90
24035;DHT22;12242;50.952;4.678;2023-03-01T08:07:05;1.50;99.90
24035;DHT22;12242;50.952;4.678;2023-03-01T08:09:35;1.40;99.90
24035;DHT22;12242;50.952;4.678;2023-03-01T08:12:04;1.30;99.90
24035;DHT22;12242;50.952;4.678;2023-03-01T08:14:32;1.30;99.90
24035;DHT22;12242;50.952;4.678;2023-03-01T08:17:00;1.30;99.90
24035;DHT22;12242;50.952;4.678;2023-03-01T08:19:30;1.30;99.90
24035;DHT22;12242;50.952;4.678;2023-03-01T08:21:58;1.30;99.90
24035;DHT22;12242;50.952;4.678;2023-03-01T08:24:27;1.40;99.90
24035;DHT22;12242;50.952;4.678;2023-03-01T08:26:55;1.40;99.90
24035;DHT22;12242;50.952;4.678;2023-03-01T08:29:23;1.60;99.90
24035;DHT22;12242;50.952;4.678;2023-03-01T08:31:52;1.70;99.90
24035;DHT22;12242;50.952;4.678;2023-03-01T08:34:19;1.80;99.90
24035;DHT22;12242;50.952;4.678;2023-03-01T08:36:47;1.80;99.90
24035;DHT22;12242;50.952;4.678;2023-03-01T08:39:17;1.80;99.90
24035;DHT22;12242;50.952;4.678;2023-03-01T08:41:46;1.80;99.90
24035;DHT22;12242;50.952;4.678;2023-03-01T08:44:15;1.80;99.90
24035;DHT22;12242;50.952;4.678;2023-03-01T08:46:44;1.90;99.90
24035;DHT22;12242;50.952;4.678;2023-03-01T08:49:14;2.00;99.90
24035;DHT22;12242;50.952;4.678;2023-03-01T08:51:43;2.10;99.90
24035;DHT22;12242;50.952;4.678;2023-03-01T08:54:14;2.70;99.90
24035;DHT22;12242;50.952;4.678;2023-03-01T08:56:42;3.80;99.90
24035;DHT22;12242;50.952;4.678;2023-03-01T08:59:14;5.00;99.90
24035;DHT22;12242;50.952;4.678;2023-03-01T09:01:42;5.60;99.90
24035;DHT22;12242;50.952;4.678;2023-03-01T09:04:14;6.20;99.90
24035;DHT22;12242;50.952;4.678;2023-03-01T09:06:43;6.80;99.90
24035;DHT22;12242;50.952;4.678;2023-03-01T09:09:14;6.90;99.90
24035;DHT22;12242;50.952;4.678;2023-03-01T09:11:44;7.00;99.90
24035;DHT22;12242;50.952;4.678;2023-03-01T09:14:14;7.00;99.90
24035;DHT22;12242;50.952;4.678;2023-03-01T09:16:42;7.20;99.90
24035;DHT22;12242;50.952;4.678;2023-03-01T09:19:09;7.50;99.90
24035;DHT22;12242;50.952;4.678;2023-03-01T09:21:38;8.30;99.60
24035;DHT22;12242;50.952;4.678;2023-03-01T09:24:14;8.20;97.60
24035;DHT22;12242;50.952;4.678;2023-03-01T09:26:42;8.40;97.80
24035;DHT22;12242;50.952;4.678;2023-03-01T09:29:16;8.50;98.20
24035;DHT22;12242;50.952;4.678;2023-03-01T09:31:44;9.10;94.60
24035;DHT22;12242;50.952;4.678;2023-03-01T09:34:11;9.90;93.50
24035;DHT22;12242;50.952;4.678;2023-03-01T09:36:41;10.50;92.60
24035;DHT22;12242;50.952;4.678;2023-03-01T09:39:08;9.90;92.10
24035;DHT22;12242;50.952;4.678;2023-03-01T09:46:49;10.00;90.30
24035;DHT22;12242;50.952;4.678;2023-03-01T09:49:27;10.80;89.80
24035;DHT22;12242;50.952;4.678;2023-03-01T09:54:28;10.10;88.80
24035;DHT22;12242;50.952;4.678;2023-03-01T10:05:52;10.40;86.60
24035;DHT22;12242;50.952;4.678;2023-03-01T10:11:21;10.00;87.20
24035;DHT22;12242;50.952;4.678;2023-03-01T10:17:03;10.10;88.70
24035;DHT22;12242;50.952;4.678;2023-03-01T10:19:47;10.60;85.00
24035;DHT22;12242;50.952;4.678;2023-03-01T10:24:52;11.10;83.60
24035;DHT22;12242;50.952;4.678;2023-03-01T10:27:24;11.40;81.70
24035;DHT22;12242;50.952;4.678;2023-03-01T10:32:30;11.20;78.80
24035;DHT22;12242;50.952;4.678;2023-03-01T10:34:58;11.40;79.00
24035;DHT22;12242;50.952;4.678;2023-03-01T10:37:26;12.20;78.10
24035;DHT22;12242;50.952;4.678;2023-03-01T10:40:15;12.00;81.50
24035;DHT22;12242;50.952;4.678;2023-03-01T10:42:49;12.10;81.20
24035;DHT22;12242;50.952;4.678;2023-03-01T10:48:17;12.10;78.20
24035;DHT22;12242;50.952;4.678;2023-03-01T10:50:48;12.30;77.60
24035;DHT22;12242;50.952;4.678;2023-03-01T10:53:37;11.60;78.00
24035;DHT22;12242;50.952;4.678;2023-03-01T10:56:09;11.80;81.80
24035;DHT22;12242;50.952;4.678;2023-03-01T10:58:38;11.90;81.10
24035;DHT22;12242;50.952;4.678;2023-03-01T11:03:45;12.10;77.60
24035;DHT22;12242;50.952;4.678;2023-03-01T11:06:30;12.40;77.10
24035;DHT22;12242;50.952;4.678;2023-03-01T11:09:17;12.50;77.20
24035;DHT22;12242;50.952;4.678;2023-03-01T11:11:46;12.90;77.20
24035;DHT22;12242;50.952;4.678;2023-03-01T11:15:08;13.70;75.80
24035;DHT22;12242;50.952;4.678;2023-03-01T11:17:31;13.50;74.00
24035;DHT22;12242;50.952;4.678;2023-03-01T11:22:52;12.80;72.80
24035;DHT22;12242;50.952;4.678;2023-03-01T11:25:26;12.80;73.70
24035;DHT22;12242;50.952;4.678;2023-03-01T11:27:54;12.50;72.10
24035;DHT22;12242;50.952;4.678;2023-03-01T11:33:46;12.10;72.30
24035;DHT22;12242;50.952;4.678;2023-03-01T11:38:46;13.00;72.70
24035;DHT22;12242;50.952;4.678;2023-03-01T11:41:26;13.90;72.30
24035;DHT22;12242;50.952;4.678;2023-03-01T11:44:16;14.50;70.90
24035;DHT22;12242;50.952;4.678;2023-03-01T12:04:16;14.70;73.60
24035;DHT22;12242;50.952;4.678;2023-03-01T12:06:56;15.20;66.90
24035;DHT22;12242;50.952;4.678;2023-03-01T12:23:14;15.00;62.60
24035;DHT22;12242;50.952;4.678;2023-03-01T12:26:05;14.60;67.20
24035;DHT22;12242;50.952;4.678;2023-03-01T12:42:54;13.60;69.10
24035;DHT22;12242;50.952;4.678;2023-03-01T12:45:50;14.10;70.00
24035;DHT22;12242;50.952;4.678;2023-03-01T12:48:30;14.80;65.50
24035;DHT22;12242;50.952;4.678;2023-03-01T12:51:02;15.00;64.60
24035;DHT22;12242;50.952;4.678;2023-03-01T12:53:36;14.60;64.30
24035;DHT22;12242;50.952;4.678;2023-03-01T12:56:06;15.10;63.50
24035;DHT22;12242;50.952;4.678;2023-03-01T13:04:33;15.90;61.40
24035;DHT22;12242;50.952;4.678;2023-03-01T13:10:14;15.30;62.90
24035;DHT22;12242;50.952;4.678;2023-03-01T13:20:47;15.70;64.30
24035;DHT22;12242;50.952;4.678;2023-03-01T13:26:12;15.10;57.90
24035;DHT22;12242;50.952;4.678;2023-03-01T13:36:48;15.80;62.20
24035;DHT22;12242;50.952;4.678;2023-03-01T13:39:31;16.10;61.60
24035;DHT22;12242;50.952;4.678;2023-03-01T13:42:00;16.40;61.60
24035;DHT22;12242;50.952;4.678;2023-03-01T13:44:36;16.20;59.10
24035;DHT22;12242;50.952;4.678;2023-03-01T13:49:43;15.70;63.70
24035;DHT22;12242;50.952;4.678;2023-03-01T13:52:37;15.90;60.80
24035;DHT22;12242;50.952;4.678;2023-03-01T13:55:21;15.30;59.30
24035;DHT22;12242;50.952;4.678;2023-03-01T13:57:52;13.80;61.30
24035;DHT22;12242;50.952;4.678;2023-03-01T14:00:46;14.00;64.00
24035;DHT22;12242;50.952;4.678;2023-03-01T14:03:19;14.40;63.30
24035;DHT22;12242;50.952;4.678;2023-03-01T14:06:06;14.30;61.30
24035;DHT22;12242;50.952;4.678;2023-03-01T14:08:42;14.30;63.60
24035;DHT22;12242;50.952;4.678;2023-03-01T14:11:29;14.60;63.60
24035;DHT22;12242;50.952;4.678;2023-03-01T14:19:28;14.40;63.00
24035;DHT22;12242;50.952;4.678;2023-03-01T14:24:51;14.50;60.70
24035;DHT22;12242;50.952;4.678;2023-03-01T14:27:19;14.50;62.20
24035;DHT22;12242;50.952;4.678;2023-03-01T14:30:02;15.00;61.50
24035;DHT22;12242;50.952;4.678;2023-03-01T14:32:31;14.60;62.00
24035;DHT22;12242;50.952;4.678;2023-03-01T14:35:00;14.40;60.50
24035;DHT22;12242;50.952;4.678;2023-03-01T14:37:30;14.20;60.60
24035;DHT22;12242;50.952;4.678;2023-03-01T14:40:00;13.60;61.40
24035;DHT22;12242;50.952;4.678;2023-03-01T14:42:35;13.30;63.30
24035;DHT22;12242;50.952;4.678;2023-03-01T14:45:04;13.10;64.30
24035;DHT22;12242;50.952;4.678;2023-03-01T14:47:35;13.00;63.80
24035;DHT22;12242;50.952;4.678;2023-03-01T14:50:26;12.70;64.90
24035;DHT22;12242;50.952;4.678;2023-03-01T14:53:05;12.70;64.30
24035;DHT22;12242;50.952;4.678;2023-03-01T14:55:42;12.50;62.40
24035;DHT22;12242;50.952;4.678;2023-03-01T14:58:14;12.10;63.30
24035;DHT22;12242;50.952;4.678;2023-03-01T15:00:55;11.90;64.10
24035;DHT22;12242;50.952;4.678;2023-03-01T15:05:57;12.10;66.00
24035;DHT22;12242;50.952;4.678;2023-03-01T15:08:25;12.10;63.20
24035;DHT22;12242;50.952;4.678;2023-03-01T15:11:16;12.20;64.40
24035;DHT22;12242;50.952;4.678;2023-03-01T15:13:44;12.30;63.80
24035;DHT22;12242;50.952;4.678;2023-03-01T15:16:15;12.50;64.00
24035;DHT22;12242;50.952;4.678;2023-03-01T15:18:55;12.70;64.00
24035;DHT22;12242;50.952;4.678;2023-03-01T15:21:25;12.40;63.80
24035;DHT22;12242;50.952;4.678;2023-03-01T15:24:17;12.40;65.70
24035;DHT22;12242;50.952;4.678;2023-03-01T15:26:59;12.50;63.40
24035;DHT22;12242;50.952;4.678;2023-03-01T15:29:31;12.60;64.70
24035;DHT22;12242;50.952;4.678;2023-03-01T15:32:03;12.50;64.60
24035;DHT22;12242;50.952;4.678;2023-03-01T15:34:33;12.40;63.50
24035;DHT22;12242;50.952;4.678;2023-03-01T15:37:03;12.10;63.80
24035;DHT22;12242;50.952;4.678;2023-03-01T15:39:41;11.80;63.30
24035;DHT22;12242;50.952;4.678;2023-03-01T15:42:11;11.90;64.20
24035;DHT22;12242;50.952;4.678;2023-03-01T15:44:41;11.90;64.40
24035;DHT22;12242;50.952;4.678;2023-03-01T15:47:24;11.80;63.30
24035;DHT22;12242;50.952;4.678;2023-03-01T15:49:54;11.70;64.20
24035;DHT22;12242;50.952;4.678;2023-03-01T15:52:28;11.90;67.70
24035;DHT22;12242;50.952;4.678;2023-03-01T15:55:01;12.10;65.10
24035;DHT22;12242;50.952;4.678;2023-03-01T15:57:29;11.70;66.50
24035;DHT22;12242;50.952;4.678;2023-03-01T15:59:57;11.20;66.50
24035;DHT22;12242;50.952;4.678;2023-03-01T16:02:24;10.90;67.00
24035;DHT22;12242;50.952;4.678;2023-03-01T16:04:52;10.80;66.90
24035;DHT22;12242;50.952;4.678;2023-03-01T16:07:21;10.60;68.30
24035;DHT22;12242;50.952;4.678;2023-03-01T16:09:48;10.50;67.30
24035;DHT22;12242;50.952;4.678;2023-03-01T16:12:16;10.50;68.50
24035;DHT22;12242;50.952;4.678;2023-03-01T16:14:44;10.50;68.20
24035;DHT22;12242;50.952;4.678;2023-03-01T16:17:11;10.20;68.10
24035;DHT22;12242;50.952;4.678;2023-03-01T16:19:39;9.80;69.60
24035;DHT22;12242;50.952;4.678;2023-03-01T16:22:10;9.60;71.00
24035;DHT22;12242;50.952;4.678;2023-03-01T16:24:37;9.60;72.10
24035;DHT22;12242;50.952;4.678;2023-03-01T16:27:05;9.30;71.80
24035;DHT22;12242;50.952;4.678;2023-03-01T16:29:33;9.10;73.60
24035;DHT22;12242;50.952;4.678;2023-03-01T16:32:01;8.80;73.80
24035;DHT22;12242;50.952;4.678;2023-03-01T16:34:29;8.80;74.80
24035;DHT22;12242;50.952;4.678;2023-03-01T16:36:57;8.70;76.50
24035;DHT22;12242;50.952;4.678;2023-03-01T16:39:24;8.70;76.90
24035;DHT22;12242;50.952;4.678;2023-03-01T16:41:52;8.50;76.10
24035;DHT22;12242;50.952;4.678;2023-03-01T16:44:20;8.40;77.20
24035;DHT22;12242;50.952;4.678;2023-03-01T16:46:48;8.10;77.60
24035;DHT22;12242;50.952;4.678;2023-03-01T16:49:15;7.90;77.00
24035;DHT22;12242;50.952;4.678;2023-03-01T16:51:43;7.70;80.60
24035;DHT22;12242;50.952;4.678;2023-03-01T16:54:11;7.60;81.10
24035;DHT22;12242;50.952;4.678;2023-03-01T16:56:39;7.50;80.10
24035;DHT22;12242;50.952;4.678;2023-03-01T16:59:07;7.40;82.00
24035;DHT22;12242;50.952;4.678;2023-03-01T17:01:34;7.20;80.50
24035;DHT22;12242;50.952;4.678;2023-03-01T17:04:09;7.00;81.80
24035;DHT22;12242;50.952;4.678;2023-03-01T17:06:37;6.90;84.20
24035;DHT22;12242;50.952;4.678;2023-03-01T17:09:04;6.80;84.00
24035;DHT22;12242;50.952;4.678;2023-03-01T17:11:32;6.70;83.00
24035;DHT22;12242;50.952;4.678;2023-03-01T17:14:00;6.60;83.70
24035;DHT22;12242;50.952;4.678;2023-03-01T17:16:28;6.50;85.10
24035;DHT22;12242;50.952;4.678;2023-03-01T17:18:56;6.40;85.90
24035;DHT22;12242;50.952;4.678;2023-03-01T17:21:23;6.20;86.50
24035;DHT22;12242;50.952;4.678;2023-03-01T17:23:56;6.20;86.90
24035;DHT22;12242;50.952;4.678;2023-03-01T17:26:24;6.10;86.70
24035;DHT22;12242;50.952;4.678;2023-03-01T17:28:51;6.10;87.00
24035;DHT22;12242;50.952;4.678;2023-03-01T17:31:19;6.00;87.50
24035;DHT22;12242;50.952;4.678;2023-03-01T17:33:47;6.00;87.10
24035;DHT22;12242;50.952;4.678;2023-03-01T17:36:16;5.90;89.80
24035;DHT22;12242;50.952;4.678;2023-03-01T17:38:44;5.90;87.80
24035;DHT22;12242;50.952;4.678;2023-03-01T17:41:12;5.90;88.00
24035;DHT22;12242;50.952;4.678;2023-03-01T17:43:42;5.90;90.20
24035;DHT22;12242;50.952;4.678;2023-03-01T17:46:10;5.80;88.70
24035;DHT22;12242;50.952;4.678;2023-03-01T17:48:38;5.70;90.10
24035;DHT22;12242;50.952;4.678;2023-03-01T17:51:10;5.60;90.70
24035;DHT22;12242;50.952;4.678;2023-03-01T17:53:38;5.50;91.50
24035;DHT22;12242;50.952;4.678;2023-03-01T17:56:06;5.50;90.80
24035;DHT22;12242;50.952;4.678;2023-03-01T17:58:34;5.40;91.20
24035;DHT22;12242;50.952;4.678;2023-03-01T18:01:31;5.40;91.10
24035;DHT22;12242;50.952;4.678;2023-03-01T18:04:00;5.30;92.00
24035;DHT22;12242;50.952;4.678;2023-03-01T18:06:28;5.30;91.00
24035;DHT22;12242;50.952;4.678;2023-03-01T18:08:56;5.20;92.60
24035;DHT22;12242;50.952;4.678;2023-03-01T18:11:24;5.30;93.70
24035;DHT22;12242;50.952;4.678;2023-03-01T18:13:53;5.20;92.70
24035;DHT22;12242;50.952;4.678;2023-03-01T18:16:21;5.20;92.70
24035;DHT22;12242;50.952;4.678;2023-03-01T18:18:53;5.20;93.00
24035;DHT22;12242;50.952;4.678;2023-03-01T18:21:21;5.10;93.70